createdAt,value
2018-12-26T00:00:35.031Z,1.70
2018-12-26T00:03:01.062Z,1.70
2018-12-26T00:05:27.205Z,1.70
2018-12-26T00:07:53.370Z,1.70
2018-12-26T00:10:19.377Z,1.70
2018-12-26T00:12:45.376Z,1.70
2018-12-26T00:15:12.294Z,1.70
2018-12-26T00:17:38.420Z,1.60
2018-12-26T00:20:04.679Z,1.60
2018-12-26T00:22:31.009Z,1.60
2018-12-26T00:24:57.030Z,1.60
2018-12-26T00:27:23.025Z,1.50
2018-12-26T00:29:49.078Z,1.40
2018-12-26T00:32:15.109Z,1.40
2018-12-26T00:34:41.091Z,1.40
2018-12-26T00:37:07.400Z,1.40
2018-12-26T00:39:33.389Z,1.40
2018-12-26T00:41:59.396Z,1.40
2018-12-26T00:44:25.469Z,1.40
2018-12-26T00:46:51.484Z,1.50
2018-12-26T00:49:17.468Z,1.50
2018-12-26T00:51:43.458Z,1.50
2018-12-26T00:54:09.892Z,1.50
2018-12-26T00:56:35.973Z,1.50
2018-12-26T00:59:01.994Z,1.40
2018-12-26T01:01:28.004Z,1.40
2018-12-26T01:03:54.073Z,1.40
2018-12-26T01:06:20.113Z,1.40
2018-12-26T01:08:46.196Z,1.40
2018-12-26T01:11:12.179Z,1.30
2018-12-26T01:13:38.215Z,1.30
2018-12-26T01:16:04.307Z,1.30
2018-12-26T01:18:30.396Z,1.20
2018-12-26T01:20:56.379Z,1.10
2018-12-26T01:23:22.368Z,1.10
2018-12-26T01:25:48.385Z,1.00
2018-12-26T01:28:14.375Z,1.00
2018-12-26T01:30:40.404Z,1.10
2018-12-26T01:33:06.425Z,1.00
2018-12-26T01:35:32.483Z,1.10
2018-12-26T01:37:58.518Z,1.10
2018-12-26T01:40:24.491Z,1.10
2018-12-26T01:42:50.487Z,1.00
2018-12-26T01:45:16.475Z,1.00
2018-12-26T01:47:42.545Z,1.00
2018-12-26T01:50:08.519Z,0.90
2018-12-26T01:52:34.520Z,0.80
2018-12-26T01:55:00.532Z,0.70
2018-12-26T01:57:26.585Z,0.80
2018-12-26T01:59:52.570Z,0.80
2018-12-26T02:02:18.574Z,0.80
2018-12-26T02:04:44.561Z,0.80
2018-12-26T02:07:10.566Z,0.80
2018-12-26T02:09:36.573Z,0.80
2018-12-26T02:12:02.707Z,0.70
2018-12-26T02:14:28.720Z,0.70
2018-12-26T02:16:54.704Z,0.70
2018-12-26T02:19:20.833Z,0.70
2018-12-26T02:21:46.925Z,0.70
2018-12-26T02:24:12.911Z,0.70
2018-12-26T02:26:38.942Z,0.70
2018-12-26T02:29:04.967Z,0.70
2018-12-26T02:31:30.961Z,0.60
2018-12-26T02:33:56.949Z,0.60
2018-12-26T02:36:22.950Z,0.60
2018-12-26T02:38:48.977Z,0.60
2018-12-26T02:41:14.966Z,0.60
2018-12-26T02:43:41.342Z,0.60
2018-12-26T02:46:07.328Z,0.40
2018-12-26T02:48:33.352Z,0.50
2018-12-26T02:50:59.529Z,0.50
2018-12-26T02:53:25.757Z,0.40
2018-12-26T02:55:53.317Z,0.50
2018-12-26T02:58:20.655Z,0.40
2018-12-26T03:00:46.712Z,0.50
2018-12-26T03:03:12.688Z,0.40
2018-12-26T03:05:38.685Z,0.30
2018-12-26T03:08:04.659Z,0.30
2018-12-26T03:10:30.656Z,0.30
2018-12-26T03:12:56.635Z,0.20
2018-12-26T03:15:24.602Z,0.20
2018-12-26T03:17:50.594Z,0.20
2018-12-26T03:20:16.579Z,0.10
2018-12-26T03:22:42.552Z,0.20
2018-12-26T03:25:08.547Z,0.10
2018-12-26T03:27:34.554Z,0.10
2018-12-26T03:30:00.559Z,0.10
2018-12-26T03:32:26.542Z,0.10
2018-12-26T03:34:52.570Z,0.10
2018-12-26T03:37:18.772Z,0.10
2018-12-26T03:39:44.766Z,0.10
2018-12-26T03:42:10.858Z,0.10
2018-12-26T03:44:37.976Z,0.00
2018-12-26T03:47:04.651Z,0.00
2018-12-26T03:49:33.743Z,-0.10
2018-12-26T03:52:02.080Z,-0.10
2018-12-26T03:54:27.667Z,-0.10
2018-12-26T03:56:53.669Z,-0.20
2018-12-26T03:59:19.706Z,-0.20
2018-12-26T04:01:45.692Z,-0.20
2018-12-26T04:04:11.748Z,-0.10
2018-12-26T04:06:37.762Z,-0.20
2018-12-26T04:09:06.066Z,-0.20
2018-12-26T04:11:32.372Z,-0.20
2018-12-26T04:13:58.512Z,-0.20
2018-12-26T04:16:24.647Z,-0.20
2018-12-26T04:18:50.723Z,-0.20
2018-12-26T04:21:16.953Z,-0.30
2018-12-26T04:23:43.046Z,-0.30
2018-12-26T04:26:09.062Z,-0.30
2018-12-26T04:28:35.069Z,-0.30
2018-12-26T04:31:01.051Z,-0.30
2018-12-26T04:33:27.159Z,-0.30
2018-12-26T04:35:54.268Z,-0.30
2018-12-26T04:38:20.275Z,-0.20
2018-12-26T04:40:47.155Z,-0.20
2018-12-26T04:43:13.285Z,-0.40
2018-12-26T04:45:39.334Z,-0.50
2018-12-26T04:48:12.151Z,-0.60
2018-12-26T04:50:38.197Z,-0.70
2018-12-26T04:53:04.163Z,-0.70
2018-12-26T04:55:30.226Z,-0.70
2018-12-26T04:57:56.252Z,-0.80
2018-12-26T05:00:22.297Z,-0.80
2018-12-26T05:02:48.407Z,-0.80
2018-12-26T05:05:14.402Z,-0.90
2018-12-26T05:07:40.428Z,-0.90
2018-12-26T05:10:06.427Z,-0.90
2018-12-26T05:12:32.402Z,-1.00
2018-12-26T05:14:58.443Z,-0.90
2018-12-26T05:17:24.436Z,-1.00
2018-12-26T05:19:50.453Z,-1.00
2018-12-26T05:22:18.491Z,-1.00
2018-12-26T05:24:45.141Z,-1.00
2018-12-26T05:27:11.167Z,-0.90
2018-12-26T05:29:37.191Z,-0.90
2018-12-26T05:32:03.168Z,-0.80
2018-12-26T05:34:29.332Z,-0.80
2018-12-26T05:36:55.349Z,-0.90
2018-12-26T05:39:21.345Z,-0.90
2018-12-26T05:41:47.356Z,-0.80
2018-12-26T05:44:13.391Z,-0.80
2018-12-26T05:46:39.383Z,-0.70
2018-12-26T05:49:05.368Z,-0.60
2018-12-26T05:51:31.359Z,-0.60
2018-12-26T05:53:57.346Z,-0.70
2018-12-26T05:56:44.148Z,-0.80
2018-12-26T05:59:10.644Z,-0.80
2018-12-26T06:01:37.145Z,-0.90
2018-12-26T06:04:03.465Z,-1.10
2018-12-26T06:06:29.421Z,-1.30
2018-12-26T06:08:55.397Z,-1.40
2018-12-26T06:11:21.406Z,-1.40
2018-12-26T06:13:47.384Z,-1.40
2018-12-26T06:16:13.401Z,-1.40
2018-12-26T06:18:39.386Z,-1.40
2018-12-26T06:21:05.433Z,-1.40
2018-12-26T06:23:31.412Z,-1.30
2018-12-26T06:25:57.453Z,-1.30
2018-12-26T06:28:23.519Z,-1.30
2018-12-26T06:30:49.505Z,-1.30
2018-12-26T06:33:15.473Z,-1.20
2018-12-26T06:35:41.551Z,-1.20
2018-12-26T06:38:07.521Z,-1.10
2018-12-26T06:40:33.526Z,-1.00
2018-12-26T06:42:59.498Z,-1.00
2018-12-26T06:45:25.546Z,-1.00
2018-12-26T06:47:51.519Z,-1.00
2018-12-26T06:50:17.633Z,-1.00
2018-12-26T06:52:43.620Z,-1.00
2018-12-26T06:55:09.625Z,-1.10
2018-12-26T06:57:35.632Z,-1.30
2018-12-26T07:00:02.542Z,-1.30
2018-12-26T07:02:28.526Z,-1.30
2018-12-26T07:04:54.552Z,-1.30
2018-12-26T07:07:20.588Z,-1.30
2018-12-26T07:09:46.584Z,-1.30
2018-12-26T07:12:12.649Z,-1.40
2018-12-26T07:14:38.656Z,-1.40
2018-12-26T07:17:04.716Z,-1.40
2018-12-26T07:19:30.719Z,-1.40
2018-12-26T07:21:56.727Z,-1.40
2018-12-26T07:24:22.727Z,-1.40
2018-12-26T07:26:50.642Z,-1.50
2018-12-26T07:29:16.732Z,-1.40
2018-12-26T07:31:42.811Z,-1.30
2018-12-26T07:34:08.854Z,-1.30
2018-12-26T07:36:34.918Z,-1.40
2018-12-26T07:39:00.920Z,-1.40
2018-12-26T07:41:26.911Z,-1.50
2018-12-26T07:43:52.896Z,-1.40
2018-12-26T07:46:18.944Z,-1.30
2018-12-26T07:48:45.032Z,-1.30
2018-12-26T07:51:11.032Z,-1.30
2018-12-26T07:53:37.019Z,-1.30
2018-12-26T07:56:03.063Z,-1.50
2018-12-26T07:58:29.065Z,-1.40
2018-12-26T08:00:55.058Z,-1.30
2018-12-26T08:03:21.046Z,-1.30
2018-12-26T08:05:47.079Z,-1.00
2018-12-26T08:08:13.076Z,-0.90
2018-12-26T08:10:39.213Z,-0.80
2018-12-26T08:13:05.208Z,-0.80
2018-12-26T08:15:31.236Z,-0.80
2018-12-26T08:17:57.214Z,-0.60
2018-12-26T08:20:23.206Z,-0.50
2018-12-26T08:22:49.187Z,-0.60
2018-12-26T08:25:15.189Z,-0.70
2018-12-26T08:27:41.232Z,-0.90
2018-12-26T08:30:07.293Z,-1.00
2018-12-26T08:32:33.383Z,-1.10
2018-12-26T08:34:59.390Z,-1.20
2018-12-26T08:37:25.364Z,-1.20
2018-12-26T08:39:51.354Z,-1.20
2018-12-26T08:42:17.383Z,-1.20
2018-12-26T08:44:43.404Z,-1.10
2018-12-26T08:47:09.434Z,-1.10
2018-12-26T08:49:35.452Z,-1.10
2018-12-26T08:52:01.494Z,-1.10
2018-12-26T08:54:27.483Z,-1.10
2018-12-26T08:56:53.512Z,-1.00
2018-12-26T08:59:19.519Z,-1.00
2018-12-26T09:01:45.539Z,-1.00
2018-12-26T09:04:14.871Z,-1.00
2018-12-26T09:06:40.922Z,-1.00
2018-12-26T09:09:06.918Z,-1.00
2018-12-26T09:11:32.990Z,-1.10
2018-12-26T09:13:59.117Z,-1.10
2018-12-26T09:16:25.278Z,-1.00
2018-12-26T09:18:51.295Z,-0.90
2018-12-26T09:21:17.285Z,-0.80
2018-12-26T09:23:43.283Z,-0.90
2018-12-26T09:26:11.165Z,-1.00
2018-12-26T09:28:43.803Z,-1.10
2018-12-26T09:31:05.067Z,-1.10
2018-12-26T09:33:31.086Z,-1.10
2018-12-26T09:35:57.098Z,-1.20
2018-12-26T09:38:23.107Z,-1.20
2018-12-26T09:40:49.108Z,-1.10
2018-12-26T09:43:15.324Z,-1.10
2018-12-26T09:45:42.373Z,-1.00
2018-12-26T09:48:08.381Z,-0.90
2018-12-26T09:50:34.427Z,-0.90
2018-12-26T09:53:00.519Z,-0.90
2018-12-26T09:55:26.564Z,-0.80
2018-12-26T09:57:52.553Z,-0.90
2018-12-26T10:00:18.601Z,-0.80
2018-12-26T10:02:44.631Z,-0.80
2018-12-26T10:05:10.735Z,-0.80
2018-12-26T10:07:37.088Z,-0.80
2018-12-26T10:10:05.423Z,-0.80
2018-12-26T10:12:31.398Z,-0.80
2018-12-26T10:15:00.436Z,-0.90
2018-12-26T10:17:26.447Z,-0.80
2018-12-26T10:19:52.417Z,-0.70
2018-12-26T10:22:18.451Z,-0.60
2018-12-26T10:24:44.501Z,-0.70
2018-12-26T10:27:10.515Z,-0.70
2018-12-26T10:29:36.532Z,-0.80
2018-12-26T10:32:02.581Z,-0.80
2018-12-26T10:34:29.624Z,-0.90
2018-12-26T10:36:56.003Z,-0.80
2018-12-26T10:39:22.025Z,-0.80
2018-12-26T10:41:48.063Z,-0.80
2018-12-26T10:44:19.977Z,-0.80
2018-12-26T10:46:45.943Z,-0.80
2018-12-26T10:49:11.983Z,-0.80
2018-12-26T10:51:37.986Z,-0.90
2018-12-26T10:54:04.021Z,-0.80
2018-12-26T10:56:30.034Z,-0.80
2018-12-26T10:58:56.697Z,-0.90
2018-12-26T11:01:22.731Z,-0.70
2018-12-26T11:03:48.755Z,-0.70
2018-12-26T11:06:14.769Z,-0.60
2018-12-26T11:08:40.841Z,-0.60
2018-12-26T11:11:06.825Z,-0.60
2018-12-26T11:13:32.937Z,-0.60
2018-12-26T11:15:58.903Z,-0.50
2018-12-26T11:18:24.891Z,-0.60
2018-12-26T11:20:51.079Z,-0.50
2018-12-26T11:23:17.170Z,-0.50
2018-12-26T11:25:43.224Z,-0.50
2018-12-26T11:28:09.278Z,-0.50
2018-12-26T11:30:35.323Z,-0.40
2018-12-26T11:33:01.538Z,-0.40
2018-12-26T11:35:27.620Z,-0.30
2018-12-26T11:37:53.657Z,-0.30
2018-12-26T11:40:19.675Z,-0.30
2018-12-26T11:42:46.003Z,-0.30
2018-12-26T11:45:12.015Z,-0.30
2018-12-26T11:47:38.008Z,-0.20
2018-12-26T11:50:05.850Z,-0.20
2018-12-26T11:52:31.900Z,-0.10
2018-12-26T11:54:57.919Z,-0.10
2018-12-26T11:57:23.944Z,-0.10
2018-12-26T11:59:49.989Z,-0.10
2018-12-26T12:02:20.518Z,0.00
2018-12-26T12:04:43.880Z,0.00
2018-12-26T12:07:09.891Z,-0.20
2018-12-26T12:09:36.038Z,-0.20
2018-12-26T12:12:02.087Z,-0.30
2018-12-26T12:14:28.075Z,-0.10
2018-12-26T12:16:54.151Z,-0.10
2018-12-26T12:19:22.241Z,-0.30
2018-12-26T12:21:48.360Z,-0.10
2018-12-26T12:24:14.604Z,-0.20
2018-12-26T12:26:40.683Z,-0.30
2018-12-26T12:29:06.785Z,-0.20
2018-12-26T12:31:33.594Z,-0.10
2018-12-26T12:33:59.718Z,0.00
2018-12-26T12:36:26.097Z,0.10
2018-12-26T12:38:52.607Z,0.10
2018-12-26T12:41:38.524Z,0.10
2018-12-26T12:44:07.851Z,0.10
2018-12-26T12:46:34.964Z,0.20
2018-12-26T12:49:03.721Z,0.30
2018-12-26T12:51:29.778Z,0.30
2018-12-26T12:53:55.903Z,0.40
2018-12-26T12:56:28.813Z,0.40
2018-12-26T12:58:55.111Z,0.40
2018-12-26T13:01:22.400Z,0.50
2018-12-26T13:03:48.498Z,0.40
2018-12-26T13:06:14.546Z,0.10
2018-12-26T13:08:40.544Z,0.10
2018-12-26T13:11:06.609Z,0.00
2018-12-26T13:13:39.471Z,-0.10
2018-12-26T13:16:06.861Z,0.00
2018-12-26T13:18:32.893Z,0.00
2018-12-26T13:20:59.075Z,0.00
2018-12-26T13:23:25.123Z,-0.10
2018-12-26T13:25:51.204Z,-0.10
2018-12-26T13:28:17.308Z,-0.10
2018-12-26T13:30:44.572Z,0.00
2018-12-26T13:33:10.675Z,0.10
2018-12-26T13:35:36.817Z,0.10
2018-12-26T13:38:02.846Z,0.00
2018-12-26T13:40:29.953Z,-0.10
2018-12-26T13:42:56.319Z,-0.10
2018-12-26T13:45:22.604Z,-0.20
2018-12-26T13:47:49.904Z,-0.30
2018-12-26T13:50:15.912Z,-0.20
2018-12-26T13:52:41.935Z,-0.10
2018-12-26T13:55:07.995Z,-0.10
2018-12-26T13:57:36.949Z,0.00
2018-12-26T14:00:06.141Z,0.00
2018-12-26T14:02:32.155Z,-0.10
2018-12-26T14:04:58.172Z,0.00
2018-12-26T14:07:24.195Z,0.00
2018-12-26T14:09:50.616Z,0.00
2018-12-26T14:12:16.648Z,0.00
2018-12-26T14:14:42.675Z,-0.10
2018-12-26T14:17:08.712Z,-0.10
2018-12-26T14:19:34.879Z,-0.10
2018-12-26T14:22:00.914Z,-0.10
2018-12-26T14:24:26.911Z,0.00
2018-12-26T14:26:52.936Z,0.10
2018-12-26T14:29:18.950Z,0.10
2018-12-26T14:31:44.986Z,0.10
2018-12-26T14:34:12.032Z,0.10
2018-12-26T14:36:39.391Z,0.10
2018-12-26T14:39:05.547Z,0.20
2018-12-26T14:41:31.600Z,0.10
2018-12-26T14:43:57.612Z,0.10
2018-12-26T14:46:23.853Z,0.10
2018-12-26T14:48:55.712Z,0.10
2018-12-26T14:51:26.385Z,0.10
2018-12-26T14:53:49.786Z,0.10
2018-12-26T14:56:15.809Z,0.00
2018-12-26T14:58:41.803Z,0.00
2018-12-26T15:01:07.819Z,0.00
2018-12-26T15:03:33.831Z,0.00
2018-12-26T15:06:00.983Z,0.00
2018-12-26T15:08:28.071Z,0.10
2018-12-26T15:10:54.096Z,0.20
2018-12-26T15:13:20.147Z,0.20
2018-12-26T15:15:46.177Z,0.20
2018-12-26T15:18:12.191Z,0.20
2018-12-26T15:20:38.359Z,0.30
2018-12-26T15:23:04.387Z,0.20
2018-12-26T15:25:30.479Z,0.20
2018-12-26T15:27:56.522Z,0.10
2018-12-26T15:30:28.602Z,0.00
2018-12-26T15:32:51.767Z,0.10
2018-12-26T15:35:17.765Z,0.10
2018-12-26T15:37:46.293Z,0.00
2018-12-26T15:40:12.272Z,0.10
2018-12-26T15:42:38.341Z,0.20
2018-12-26T15:45:05.499Z,0.10
2018-12-26T15:47:31.537Z,0.20
2018-12-26T15:49:57.518Z,0.30
2018-12-26T15:52:23.533Z,0.40
2018-12-26T15:54:56.575Z,0.30
2018-12-26T15:57:22.583Z,0.40
2018-12-26T15:59:48.605Z,0.40
2018-12-26T16:02:14.795Z,0.40
2018-12-26T16:04:40.799Z,0.50
2018-12-26T16:07:06.814Z,0.40
2018-12-26T16:09:32.819Z,0.50
2018-12-26T16:12:05.223Z,0.40
2018-12-26T16:14:31.198Z,0.40
2018-12-26T16:16:57.236Z,0.30
2018-12-26T16:19:23.431Z,0.20
2018-12-26T16:21:49.403Z,0.30
2018-12-26T16:24:15.370Z,0.40
2018-12-26T16:29:08.768Z,0.40
2018-12-26T16:31:34.872Z,0.30
2018-12-26T16:34:00.872Z,0.30
2018-12-26T16:36:28.269Z,0.30
2018-12-26T16:38:54.273Z,0.30
2018-12-26T16:41:20.260Z,0.20
2018-12-26T16:43:46.317Z,0.20
2018-12-26T16:46:13.572Z,0.30
2018-12-26T16:48:39.755Z,0.30
2018-12-26T16:51:05.717Z,0.20
2018-12-26T16:53:31.724Z,0.20
2018-12-26T16:55:57.724Z,0.20
2018-12-26T16:58:23.820Z,0.20
2018-12-26T17:00:55.025Z,0.20
2018-12-26T17:03:17.855Z,0.30
2018-12-26T17:05:49.712Z,0.30
2018-12-26T17:08:15.695Z,0.30
2018-12-26T17:10:41.677Z,0.30
2018-12-26T17:13:07.710Z,0.20
2018-12-26T17:15:33.786Z,0.30
2018-12-26T17:17:59.795Z,0.40
2018-12-26T17:20:25.818Z,0.40
2018-12-26T17:22:51.835Z,0.40
2018-12-26T17:25:17.831Z,0.40
2018-12-26T17:27:43.893Z,0.50
2018-12-26T17:30:10.364Z,0.50
2018-12-26T17:32:36.359Z,0.50
2018-12-26T17:35:02.884Z,0.50
2018-12-26T17:37:31.267Z,0.40
2018-12-26T17:39:57.248Z,0.40
2018-12-26T17:42:23.364Z,0.30
2018-12-26T17:44:49.374Z,0.30
2018-12-26T17:47:15.445Z,0.20
2018-12-26T17:49:41.428Z,0.20
2018-12-26T17:52:07.437Z,0.30
2018-12-26T17:54:37.156Z,0.40
2018-12-26T17:57:03.337Z,0.40
2018-12-26T17:59:35.974Z,0.40
2018-12-26T18:02:08.877Z,0.40
2018-12-26T18:04:34.864Z,0.40
2018-12-26T18:07:01.035Z,0.30
2018-12-26T18:09:27.036Z,0.20
2018-12-26T18:11:53.043Z,0.20
2018-12-26T18:14:21.572Z,0.30
2018-12-26T18:16:47.591Z,0.30
2018-12-26T18:19:13.587Z,0.20
2018-12-26T18:21:39.672Z,0.20
2018-12-26T18:24:05.684Z,0.10
2018-12-26T18:26:32.904Z,0.10
2018-12-26T18:28:59.287Z,0.00
2018-12-26T18:31:25.288Z,0.10
2018-12-26T18:33:51.351Z,0.10
2018-12-26T18:36:17.653Z,0.10
2018-12-26T18:38:44.165Z,0.20
2018-12-26T18:41:10.151Z,0.10
2018-12-26T18:43:36.216Z,0.10
2018-12-26T18:46:04.083Z,0.20
2018-12-26T18:48:30.201Z,0.20
2018-12-26T18:50:58.154Z,0.20
2018-12-26T18:53:24.540Z,0.20
2018-12-26T18:55:50.588Z,0.20
2018-12-26T18:58:16.731Z,0.10
2018-12-26T19:00:42.839Z,0.20
2018-12-26T19:03:08.907Z,0.20
2018-12-26T19:05:34.927Z,0.20
2018-12-26T19:08:00.971Z,0.20
2018-12-26T19:10:27.055Z,0.20
2018-12-26T19:12:53.072Z,0.30
2018-12-26T19:15:19.391Z,0.30
2018-12-26T19:17:45.454Z,0.50
2018-12-26T19:20:12.796Z,0.40
2018-12-26T19:22:38.831Z,0.30
2018-12-26T19:25:06.063Z,0.40
2018-12-26T19:27:32.085Z,0.50
2018-12-26T19:29:59.451Z,0.50
2018-12-26T19:32:29.830Z,0.30
2018-12-26T19:34:55.997Z,0.20
2018-12-26T19:37:21.991Z,0.30
2018-12-26T19:39:48.084Z,0.20
2018-12-26T19:42:15.370Z,0.10
2018-12-26T19:44:41.463Z,0.10
2018-12-26T19:47:07.841Z,0.10
2018-12-26T19:49:33.914Z,0.20
2018-12-26T19:52:06.964Z,0.20
2018-12-26T19:54:32.985Z,0.10
2018-12-26T19:56:59.040Z,0.10
2018-12-26T19:59:25.148Z,0.20
2018-12-26T20:01:51.201Z,0.20
2018-12-26T20:04:18.360Z,0.20
2018-12-26T20:06:44.367Z,0.30
2018-12-26T20:09:10.388Z,0.10
2018-12-26T20:11:38.561Z,0.10
2018-12-26T20:14:06.701Z,0.20
2018-12-26T20:16:32.766Z,0.20
2018-12-26T20:19:00.658Z,0.20
2018-12-26T20:21:26.728Z,0.20
2018-12-26T20:23:52.770Z,0.20
2018-12-26T20:26:19.134Z,0.20
2018-12-26T20:28:45.353Z,0.30
2018-12-26T20:31:12.166Z,0.30
2018-12-26T20:33:38.231Z,0.30
2018-12-26T20:36:04.315Z,0.20
2018-12-26T20:38:30.460Z,0.20
2018-12-26T20:40:56.881Z,0.30
2018-12-26T20:43:22.902Z,0.40
2018-12-26T20:45:49.182Z,0.40
2018-12-26T20:48:15.426Z,0.30
2018-12-26T20:50:41.485Z,0.30
2018-12-26T20:53:07.480Z,0.30
2018-12-26T20:55:33.514Z,0.40
2018-12-26T20:57:59.555Z,0.40
2018-12-26T21:00:28.980Z,0.50
2018-12-26T21:02:55.189Z,0.40
2018-12-26T21:05:22.751Z,0.50
2018-12-26T21:07:50.035Z,0.40
2018-12-26T21:10:16.124Z,0.30
2018-12-26T21:12:42.139Z,0.30
2018-12-26T21:15:08.281Z,0.30
2018-12-26T21:17:34.720Z,0.40
2018-12-26T21:20:00.771Z,0.40
2018-12-26T21:22:30.587Z,0.30
2018-12-26T21:24:56.714Z,0.30
2018-12-26T21:27:23.664Z,0.40
2018-12-26T21:29:51.139Z,0.40
2018-12-26T21:32:17.307Z,0.40
2018-12-26T21:34:43.348Z,0.40
2018-12-26T21:37:09.428Z,0.50
2018-12-26T21:39:35.408Z,0.40
2018-12-26T21:42:03.005Z,0.40
2018-12-26T21:44:28.967Z,0.30
2018-12-26T21:46:55.156Z,0.40
2018-12-26T21:49:21.159Z,0.40
2018-12-26T21:51:47.225Z,0.30
2018-12-26T21:54:13.251Z,0.40
2018-12-26T21:56:39.344Z,0.40
2018-12-26T21:59:05.397Z,0.60
2018-12-26T22:01:31.416Z,0.60
2018-12-26T22:04:02.487Z,0.50
2018-12-26T22:06:28.667Z,0.40
2018-12-26T22:08:55.097Z,0.40
2018-12-26T22:11:21.379Z,0.40
2018-12-26T22:13:47.475Z,0.40
2018-12-26T22:16:13.674Z,0.30
2018-12-26T22:18:39.807Z,0.30
2018-12-26T22:21:05.930Z,0.20
2018-12-26T22:23:32.120Z,0.30
2018-12-26T22:26:02.735Z,0.30
2018-12-26T22:28:28.856Z,0.20
2018-12-26T22:31:04.171Z,0.20
2018-12-26T22:33:30.344Z,0.20
2018-12-26T22:35:56.367Z,0.20
2018-12-26T22:38:23.222Z,0.10
2018-12-26T22:40:49.504Z,0.10
2018-12-26T22:43:15.609Z,0.10
2018-12-26T22:45:44.868Z,0.10
2018-12-26T22:48:18.996Z,0.10
2018-12-26T22:50:48.858Z,0.10
2018-12-26T22:53:16.186Z,0.10
2018-12-26T22:55:44.919Z,0.10
2018-12-26T22:58:15.680Z,0.10
2018-12-26T23:00:42.965Z,0.20
2018-12-26T23:03:13.130Z,0.20
2018-12-26T23:05:44.345Z,0.20
2018-12-26T23:08:18.096Z,0.20
2018-12-26T23:10:50.365Z,0.30
2018-12-26T23:13:16.419Z,0.20
2018-12-26T23:15:42.604Z,0.30
2018-12-26T23:18:10.585Z,0.30
2018-12-26T23:20:36.706Z,0.20
2018-12-26T23:23:02.838Z,0.10
2018-12-26T23:25:28.945Z,0.10
2018-12-26T23:27:54.965Z,0.10
2018-12-26T23:30:20.924Z,0.10
2018-12-26T23:32:47.408Z,0.00
2018-12-26T23:35:13.727Z,0.00
2018-12-26T23:38:15.599Z,-0.10
2018-12-26T23:40:32.892Z,-0.10
2018-12-26T23:43:06.796Z,-0.10
2018-12-26T23:45:33.728Z,-0.10
2018-12-26T23:48:00.409Z,0.00
2018-12-26T23:50:26.626Z,0.00
2018-12-26T23:52:52.647Z,0.00
2018-12-26T23:55:18.679Z,0.10
2018-12-26T23:57:44.707Z,0.10
